Aérodrome :
LOGIN :

S'inscrire | Disclaimer

   EN    FR    IT 

 










Légende :    VFR   VFR Marginal   IFR   IFR Intensif   IFR Très Intensif
Visi : 
Plafond : 
>= 8 km
>= 3000ft
5 à 8 km
1000 à 3000 ft
1500m à 5 km
500 à 1000 ft
800 à 1500m
200 à 500 ft
< 800m
< 200 ft
Symboles :   Orages  Brouillard  Fortes neiges  Fortes précipitations  Vent > 20 kt
SIGMETs :   Divers  Orages  Givrage  Turbulence  Onde Orograph.  Cendres Volcan.







- Altitude de l'aérodrome : 191 ft
- Code IATA : RNB


ESDF - Ronneby

DERNIER METAR :
  • 251020Z 36005KT 9999 BKN025 06/02 Q1010

METARs EXPIRÉS :
  • 250950Z 01005KT 320V050 9999 BKN032 06/02 Q1010
  • 250920Z 05005KT 9999 SCT020 BKN028 05/02 Q1009
  • 250850Z 01003KT 340V040 9999 SCT016 BKN034 05/02 Q1009
  • 250820Z VRB02KT 9999 SCT012 BKN027 05/03 Q1009
  • 250750Z VRB02KT 9999 FEW008 BKN018 04/03 Q1008

TAF TAF ESDF
Valide du 25 à 09h jusqu'au 25 à 18h UTC


250830Z 2509/2518 06003KT 9999 SCT009 BKN015
TEMPO 2509/2512 5000 BR -RA BKN008
BECMG 2510/2513 9999 NSW BKN025 RMK MIL
Pas de NOTAMs connus pour ce terrain.



MET'MAP, la Météo Aéronautique d'un coup d'oeil ! - Copyright ORBIFLY Décembre 2007 - Disclaimer

ORBIFLY MET'MAP TEAM :

Programmation & Développement : Alexandra Zaïnal
Conception & Développement : Baudouin d'Aumeries
Co-Programmation & Développement : Marc-Olivier Méhu
Soutien technique & logistique : Manuel Goepfert

Contact : metmap@orbifly.com




SOURCES & CREDITS :

   NOAA